Kezdőlap
METAR-TAF:

METAR-TAF

Repülőterek :

Cuneo-Levaldigi repülőtér

Cuneo, Olaszország

földrajzi szélesség: 44-32-47N, földrajzi hosszúság: 007-37-20E, magasság: 386 m

Jelenlegi meteorológiai megfigyelések

A jelentés 1 órával és 23 perccel ezelõtt készült, 16:50 UTC
Északi szél 2 kt
Hőmérséklet 11°C
Páratartalom 62%
Légköri nyomás 1030 hPa
Látótávolság: 8000 m

METAR: LIMZ 221650Z 36002KT 8000 NSC 11/04 Q1030

Idő: 19:13 (18:13 UTC)

Előrejelzés

A jelentés 1 órával és 13 perccel ezelõtt készült, 17:00 UTC
Az előrejelzés 22-én 18 óra UTC és 23-én 18 óra UTC között érvényes
Különbözõ irányokból fújó szél 5 kt
Látótávolság 10 km, vagy több
felhőtlen 1500 m magasságban, és nincs gomolyfelhõ

TAF: LIMZ 221700Z 2218/2318 VRB05KT CAVOK

Meteorológiai megfigyelések és előrejelzések több, mint 4000 repülőtéren (METAR és TAF jelentéseket).

A térképen piros és sárga pontok jelzik az elérhető meteorológiai állomásokat.

Mozgassa az egeret a pont fölött, hogy megjelenjen az állomás neve.

Azután kattintson az időjárási megfigyelések és előrejelzések megtekintéséhez.

A térkép megváltoztatása: kattintson a fekete keresztel jelölt zöld gombra ráközelítéshez, a vonallal jelölt zöld gombra távolításhoz, vagy a zöld nyilakra a szomszédos térképek eléréséhez.


METAR-TAF: